• Join FlightAware (Why Join?)
  • Login
  • US Flag 
11:54PM EDT


 

Airport Tracker/Info


-or-


 

Live Flight TrackerFlight Track Log ✈ PDT4207 ✈ 01-Mar-2014 ✈ KPHL - KBGM

Flight Track Log - Related Links

Times and Time Zones

All times are in EST time to prevent confusion due to time zone crossing. See the PDT4207 flight status page for this flight to view local times or setup timezone preferences in your user account.

Time Position Orientation Groundspeed Altitude Reporting Facility
EST Latitude Longitude Course Direction KTS MPH feet Rate Location/Type
09:36PM 39.9000 -75.2333 323° Northwest 127 146 400  Level Philadelphia TRACON
09:36PM 39.9000 -75.2500 270° West 130 150 1,000 1,320 Climbing Philadelphia TRACON
09:37PM 39.9167 -75.3000 294° West 154 177 2,300 1,260 Climbing Philadelphia TRACON
09:38PM 39.9500 -75.3333 323° Northwest 164 189 3,600 1,260 Climbing Philadelphia TRACON
09:39PM 40.0193 -75.3693 323° Northwest  Level FlightAware Approximate
09:39PM 40.0000 -75.3500 346° North 170 196 4,900  Level Philadelphia TRACON
09:40PM 40.0699 -75.4183 339° North  Level FlightAware Approximate
09:40PM 40.0333 -75.3833 323° Northwest 163 188 6,200  Level Philadelphia TRACON
09:41PM 40.1170 -75.4670 323° Northwest  Level FlightAware Approximate
09:41PM 40.0833 -75.4167 333° Northwest 170 196 7,400  Level Philadelphia TRACON
09:43PM 40.1208 -75.4547 322° Northwest 162 186 8,900 1,140 Climbing New York Center
09:44PM 40.1594 -75.4875 327° Northwest 162 186 10,000 1,080 Climbing New York Center
09:45PM 40.1906 -75.5278 315° West 157 181 11,200 960 Climbing New York Center
09:46PM 40.2203 -75.5733 311° West 165 190 12,000 900 Climbing New York Center
09:47PM 40.2647 -75.6061 331° Northwest 168 193 13,100 900 Climbing New York Center
09:48PM 40.3139 -75.6319 338° Northwest 179 206 13,900 420 Climbing New York Center
09:49PM 40.3631 -75.6636 334° Northwest 205 236 14,000  Climbing New York Center
09:50PM 40.4228 -75.6981 336° Northwest 219 252 14,000  Level New York Center
09:51PM 40.4825 -75.7333 336° Northwest 225 259 14,000  Level New York Center
09:52PM 40.5378 -75.7650 336° Northwest 225 259 14,000  Level New York Center
09:53PM 40.5997 -75.7967 339° North 225 259 14,000  Level New York Center
09:54PM 40.6539 -75.8347 332° Northwest 226 260 14,000  Level New York Center
09:55PM 40.7136 -75.8725 334° Northwest 226 260 14,000  Level New York Center
09:56PM 40.7736 -75.9086 335° Northwest 226 260 14,000  Level New York Center
09:57PM 40.8283 -75.9483 331° Northwest 226 260 14,000 -60 Level New York Center
09:58PM 40.8806 -75.9869 331° Northwest 225 259 13,900  Descending New York Center
09:59PM 40.9406 -76.0183 338° Northwest 224 258 14,100 60 Climbing New York Center
10:00PM 40.9947 -76.0525 335° Northwest 218 251 14,100  Level New York Center
10:01PM 41.0500 -76.0939 331° Northwest 218 251 14,100  Level New York Center
10:02PM 41.1108 -76.1253 339° North 222 255 14,100  Level New York Center
10:03PM 41.1647 -76.1594 334° Northwest 222 255 14,100  Level New York Center
10:04PM 41.2203 -76.2042 329° Northwest 222 255 14,100  Level New York Center
10:05PM 41.2861 -76.2056 359° North 255 293 14,100  Level New York Center
10:06PM 41.3603 -76.1886 10° North 256 295 14,100  Level New York Center
10:07PM 41.4250 -76.1961 355° North 244 281 14,100  Level New York Center
10:08PM 41.4967 -76.1986 359° North 244 281 14,100 -360 Level New York Center
10:09PM 41.5736 -76.1892 North 266 306 13,400 -780 Descending New York Center
10:10PM 41.6478 -76.1775 North 273 314 12,600 -1,080 Descending New York Center
10:11PM 41.7294 -76.1681 North 278 320 11,300 -1,320 Descending New York Center
10:12PM 41.8014 -76.1583 North 270 311 10,000 -1,260 Descending New York Center
10:13PM 41.8753 -76.1569 North 258 297 8,800 -1,200 Descending New York Center
10:15PM 42.0106 -76.1586 359° North 244 281 6,400 -1,320 Descending New York Center
10:16PM 42.0800 -76.1253 20° North 256 295 4,800 -1,320 Descending New York Center
10:17PM 42.1425 -76.0917 22° Northeast 250 288 3,800 -780 Descending New York Center
10:18PM 42.1972 -76.0650 20° North 225 259 3,300 -600 Descending New York Center
10:19PM 42.2417 -76.0478 16° North 189 217 2,700 -540 Descending New York Center
10:20PM 42.2442 -76.0036 86° East 155 178 2,300 -300 Descending New York Center
10:21PM 42.2081 -75.9872 161° South 152 175 2,200 -120 Descending New York Center